Louisville International Standiford Field
KSDF : now visible

Airfield :











YOU CAN JOIN US ON...

 
LOGIN :

Register | Disclaimer

   EN    FR    IT 

 









Legend :    VFR   Marginal VFR   IFR   Intensive IFR   Very Intensive IFR
Visi :
Ceiling :
>= 8 km
>= 3000ft
5 to 8 km
1000 to 3000 ft
1500m to 5 km
500 to 1000 ft
800 to 1500m
200 to 500 ft
< 800m
< 200 ft
Symbols :   Thunderstorms  Fog  Heavy snow  Heavy precipitations  Wind > 20 kt







- Airport Elevation : 501 ft
- IATA code : SDF


KSDF - Louisville International Standiford Field

CURRENT METAR :
  • 190856Z 00000KT 10SM SCT170 24/21 A2999 RMK AO2 SLP148 60001 T02390211 55003

EXPIRED METARs :
  • 190756Z 00000KT 10SM FEW090 BKN170 24/21 A2998 RMK AO2 LTG DSNT NE RAE41 TSE07 SLP145 P0001 T02440211
  • 190708Z 00000KT 10SM -RA SCT110 OVC130 24/21 A3000 RMK AO2 LTG DSNT N AND NW TSE07 P0001 T02440206
  • 190656Z 04005KT 10SM -TSRA SCT100 BKN120CB OVC160 24/21 A2999 RMK AO2 LTG DSNT NW RAE29B49 SLP150 FREQ LTG N TS N MOV NE P0000 T02440206

TAF KSDF
Valid from the 19 at 09:00 until the 20 at 12:00 UTC


190841Z 1909/2012 VRB03KT P6SM SKC
FM191500 21007KT P6SM SCT050 SCT250
FM200100 18005KT P6SM FEW050 SCT250
No reported NOTAMs for that airfield.



MET'MAP, your aeronautical weather chart ! - Copyright ORBIFLY December 2007 - Disclaimer

ORBIFLY MET'MAP TEAM :

Programming & Development : Alexandra Zaïnal
Concept & Development : Baudouin d'Aumeries
Co-Development & Prog : Marc-Olivier Méhu
Technical & hardware support : Manuel Goepfert

Contact : metmap@orbifly.com




SOURCES & CREDITS :

   NOAA       Earth
Advisory